Terminal Aerodrome Forecast
Issued by NWS

Home | Current Version | Previous Version | Graphics & Text | Print | Product List | Glossary On
Versions: 1 2 3 4 5 6 7 8 9 10 11 12 13 14 15 16 17 18
000
FTUS41 KCLE 281700
TAFFDY
TAF
KFDY 281736Z 2818/2918 35004KT P6SM SCT250
     FM290000 VRB03KT P6SM SCT200
     FM290900 00000KT 4SM BR SCT200
      TEMPO 2910/2913 1SM BR
     FM291400 32004KT P6SM FEW040 SCT200=

USA.gov is the U.S. government's official web portal to all federal, state and local government web resources and services.